Time;durP1;ratioP1;P1;durP2;ratioP2;P2;SDS_P1;SDS_P2;PMS_P1;PMS_P2;Temp;Humidity;BMP_temperature;BMP_pressure;BME280_temperature;BME280_humidity;BME280_pressure;Samples;Min_cycle;Max_cycle;Signal;HPM_P1;HPM_P2
2022/11/04 00:00:07;;;;;;;6.38;2.70;;;;;;;;;;4997558;28;94073;-80
2022/11/04 00:02:34;;;;;;;11.35;3.30;;;;;;;;;;5001206;28;93328;-80
2022/11/04 00:05:00;;;;;;;6.55;2.28;;;;;;;;;;4998215;28;93169;-80
2022/11/04 00:10:12;;;;;;;5.22;2.80;;;;;;;;;;4998643;28;91737;-81
2022/11/04 00:12:38;;;;;;;11.13;3.20;;;;;;;;;;4997614;28;93866;-81
2022/11/04 00:17:50;;;;;;;9.02;2.30;;;;;;;;;;4996129;28;94819;-81
2022/11/04 00:28:44;;;;;;;9.73;2.20;;;;;;;;;;4998529;28;94090;-81
2022/11/04 00:33:56;;;;;;;6.47;2.22;;;;;;;;;;4998193;28;93084;-81
2022/11/04 00:36:23;;;;;;;7.20;2.13;;;;;;;;;;4998712;28;93729;-80
2022/11/04 00:38:49;;;;;;;3.20;2.00;;;;;;;;;;4998503;28;92410;-80
2022/11/04 00:41:24;;;;;;;15.02;2.65;;;;;;;;;;4997240;28;93886;-80
2022/11/04 00:43:51;;;;;;;7.43;2.08;;;;;;;;;;4994970;28;96646;-80
2022/11/04 00:46:18;;;;;;;10.35;3.05;;;;;;;;;;4997108;28;92431;-80
2022/11/04 00:48:44;;;;;;;8.10;2.60;;;;;;;;;;4999583;28;93796;-80
2022/11/04 00:51:11;;;;;;;9.32;2.47;;;;;;;;;;4997477;28;92446;-80
2022/11/04 00:53:38;;;;;;;10.18;2.90;;;;;;;;;;4997311;28;93893;-80
2022/11/04 00:56:05;;;;;;;8.20;2.70;;;;;;;;;;4996865;28;94071;-80
2022/11/04 00:58:31;;;;;;;11.05;3.50;;;;;;;;;;4997183;28;92489;-82
2022/11/04 01:00:57;;;;;;;7.35;3.50;;;;;;;;;;4997979;28;92998;-81
2022/11/04 01:03:24;;;;;;;8.70;3.55;;;;;;;;;;4996869;28;93974;-82
2022/11/04 01:05:50;;;;;;;11.98;3.53;;;;;;;;;;4997500;28;92335;-82
2022/11/04 01:08:17;;;;;;;6.47;3.65;;;;;;;;;;4996554;28;94730;-82
2022/11/04 01:10:43;;;;;;;8.60;3.40;;;;;;;;;;5000238;28;94026;-83
2022/11/04 01:13:10;;;;;;;8.70;3.67;;;;;;;;;;4996614;28;94256;-83
2022/11/04 01:15:37;;;;;;;6.70;3.88;;;;;;;;;;4996979;28;94373;-82
2022/11/04 01:18:03;;;;;;;12.13;4.80;;;;;;;;;;4996437;28;92377;-82
2022/11/04 01:20:31;;;;;;;10.68;4.38;;;;;;;;;;4997609;28;93889;-81
2022/11/04 01:22:59;;;;;;;7.75;4.38;;;;;;;;;;4995352;28;93605;-81
2022/11/04 01:25:28;;;;;;;9.20;4.88;;;;;;;;;;4997277;28;92149;-81
2022/11/04 01:27:54;;;;;;;10.45;5.10;;;;;;;;;;4997318;28;93260;-81
2022/11/04 01:30:21;;;;;;;13.75;4.93;;;;;;;;;;4996757;28;94133;-81
2022/11/04 01:32:47;;;;;;;13.20;4.72;;;;;;;;;;4999125;28;94809;-81
2022/11/04 01:35:15;;;;;;;8.88;4.47;;;;;;;;;;4997246;28;94647;-81
2022/11/04 01:37:41;;;;;;;8.05;3.80;;;;;;;;;;4995889;28;92533;-81
2022/11/04 01:40:08;;;;;;;5.25;3.85;;;;;;;;;;4996607;28;93761;-81
2022/11/04 01:42:35;;;;;;;12.95;4.32;;;;;;;;;;4995760;28;94287;-82
2022/11/04 01:45:02;;;;;;;8.13;3.28;;;;;;;;;;4995237;28;92585;-82
2022/11/04 01:47:35;;;;;;;10.45;4.07;;;;;;;;;;4996614;28;95476;-82
2022/11/04 01:50:20;;;;;;;7.00;3.42;;;;;;;;;;4997319;28;93489;-82
2022/11/04 01:52:47;;;;;;;6.60;3.35;;;;;;;;;;4999824;28;92424;-83
2022/11/04 01:55:16;;;;;;;7.72;3.25;;;;;;;;;;4996190;28;93363;-82
2022/11/04 01:57:45;;;;;;;11.70;2.75;;;;;;;;;;4995946;28;94938;-82
2022/11/04 02:00:12;;;;;;;4.63;2.70;;;;;;;;;;4996220;28;96338;-82
2022/11/04 02:02:44;;;;;;;6.88;2.78;;;;;;;;;;4997141;28;94434;-82
2022/11/04 02:05:10;;;;;;;4.77;2.40;;;;;;;;;;4996039;28;92401;-82
2022/11/04 02:07:37;;;;;;;6.35;2.75;;;;;;;;;;4996982;28;92863;-82
2022/11/04 02:10:03;;;;;;;5.07;2.50;;;;;;;;;;4995813;28;93390;-82
2022/11/04 02:15:16;;;;;;;4.38;2.08;;;;;;;;;;4999854;28;93909;-83
2022/11/04 02:18:06;;;;;;;7.72;1.83;;;;;;;;;;4995646;28;92478;-83
2022/11/04 02:20:52;;;;;;;6.72;1.92;;;;;;;;;;4996225;28;93107;-82
2022/11/04 02:23:31;;;;;;;3.47;1.30;;;;;;;;;;4994886;28;96575;-82
2022/11/04 02:26:16;;;;;;;5.35;2.08;;;;;;;;;;4996207;28;92426;-82
2022/11/04 02:29:01;;;;;;;2.60;1.70;;;;;;;;;;4996993;28;94471;-83
2022/11/04 02:31:30;;;;;;;2.80;1.20;;;;;;;;;;4996049;28;93087;-83
2022/11/04 02:34:03;;;;;;;4.10;1.10;;;;;;;;;;4995631;28;92476;-83
2022/11/04 02:36:40;;;;;;;3.97;1.20;;;;;;;;;;4996700;28;93876;-83
2022/11/04 02:39:33;;;;;;;5.55;1.33;;;;;;;;;;4999035;28;94239;-82
2022/11/04 02:42:08;;;;;;;7.97;1.48;;;;;;;;;;4991880;28;92973;-83
2022/11/04 02:44:36;;;;;;;3.03;1.20;;;;;;;;;;4996646;28;94109;-82
2022/11/04 02:47:03;;;;;;;1.23;1.02;;;;;;;;;;4995963;28;92476;-82
2022/11/04 02:49:48;;;;;;;1.73;1.17;;;;;;;;;;4994474;28;94710;-82
2022/11/04 02:52:24;;;;;;;1.42;1.02;;;;;;;;;;4996425;28;93970;-82
2022/11/04 02:54:55;;;;;;;6.57;1.23;;;;;;;;;;4998815;28;92410;-82
2022/11/04 02:57:27;;;;;;;3.05;1.00;;;;;;;;;;4999926;28;93304;-82
2022/11/04 02:59:55;;;;;;;4.13;1.10;;;;;;;;;;4998567;28;93275;-81
2022/11/04 03:02:26;;;;;;;5.28;1.20;;;;;;;;;;5001313;28;92497;-81
2022/11/04 03:04:54;;;;;;;0.93;0.93;;;;;;;;;;4999035;28;94154;-81
2022/11/04 03:07:25;;;;;;;2.88;1.60;;;;;;;;;;4999311;28;91731;-81
2022/11/04 03:09:54;;;;;;;1.70;1.20;;;;;;;;;;4998319;28;93055;-81
2022/11/04 03:12:23;;;;;;;3.03;1.60;;;;;;;;;;4998864;28;92853;-81
2022/11/04 03:14:53;;;;;;;3.92;1.50;;;;;;;;;;4997233;28;94797;-81
2022/11/04 03:17:27;;;;;;;2.55;1.30;;;;;;;;;;4998174;28;96376;-81
2022/11/04 03:19:57;;;;;;;3.65;1.40;;;;;;;;;;4998727;28;93703;-81
2022/11/04 03:22:34;;;;;;;4.07;1.80;;;;;;;;;;4998894;28;92355;-82
2022/11/04 03:25:01;;;;;;;4.60;1.60;;;;;;;;;;5001632;28;93309;-81
2022/11/04 03:27:40;;;;;;;1.88;1.55;;;;;;;;;;4999162;28;92376;-82
2022/11/04 03:30:10;;;;;;;5.43;2.35;;;;;;;;;;4998215;28;92703;-82
2022/11/04 03:32:41;;;;;;;5.28;2.10;;;;;;;;;;4998963;28;92443;-82
2022/11/04 03:35:11;;;;;;;4.35;1.88;;;;;;;;;;4999126;28;92424;-81
2022/11/04 03:37:37;;;;;;;3.72;2.15;;;;;;;;;;4998133;28;93000;-82
2022/11/04 03:40:04;;;;;;;3.60;2.15;;;;;;;;;;4996665;28;96427;-82
2022/11/04 03:42:32;;;;;;;3.90;2.15;;;;;;;;;;4999684;28;92737;-82
2022/11/04 03:45:00;;;;;;;5.05;2.00;;;;;;;;;;4981109;28;93005;-82
2022/11/04 03:47:29;;;;;;;2.22;1.65;;;;;;;;;;5002196;28;92921;-82
2022/11/04 03:50:16;;;;;;;4.70;1.90;;;;;;;;;;4998870;28;92828;-82
2022/11/04 03:52:43;;;;;;;3.13;2.13;;;;;;;;;;4997626;28;93170;-82
2022/11/04 03:55:10;;;;;;;1.95;1.85;;;;;;;;;;4998343;28;92481;-82
2022/11/04 03:58:07;;;;;;;4.88;1.80;;;;;;;;;;4998438;28;93553;-82
2022/11/04 04:00:41;;;;;;;2.60;2.10;;;;;;;;;;4978837;28;93262;-82
2022/11/04 04:03:12;;;;;;;7.57;1.93;;;;;;;;;;4998128;28;92417;-81
2022/11/04 04:05:51;;;;;;;3.35;1.95;;;;;;;;;;4977953;28;94985;-81
2022/11/04 04:08:29;;;;;;;8.95;2.40;;;;;;;;;;5001196;28;94729;-81
2022/11/04 04:11:09;;;;;;;5.25;2.55;;;;;;;;;;4998593;28;92999;-81
2022/11/04 04:13:40;;;;;;;3.90;3.05;;;;;;;;;;4997802;28;93570;-81
2022/11/04 04:16:25;;;;;;;8.98;3.55;;;;;;;;;;4998110;28;92432;-82
2022/11/04 04:18:55;;;;;;;8.90;4.28;;;;;;;;;;4997480;28;92897;-82
2022/11/04 04:21:33;;;;;;;6.47;4.38;;;;;;;;;;4998730;28;94307;-82
2022/11/04 04:29:34;;;;;;;4.63;4.20;;;;;;;;;;4997537;28;94604;-81
2022/11/04 04:32:01;;;;;;;8.43;5.35;;;;;;;;;;5000482;28;94751;-81
2022/11/04 04:34:28;;;;;;;8.35;5.60;;;;;;;;;;4998159;28;94127;-81
2022/11/04 04:37:05;;;;;;;8.65;6.93;;;;;;;;;;4998863;28;92524;-81
2022/11/04 04:45:33;;;;;;;23.92;14.80;;;;;;;;;;4997141;28;92371;-81
2022/11/04 04:47:59;;;;;;;26.38;14.98;;;;;;;;;;4996832;28;94739;-82
2022/11/04 04:50:27;;;;;;;27.83;16.83;;;;;;;;;;4997731;28;93677;-82
2022/11/04 04:52:55;;;;;;;28.77;18.17;;;;;;;;;;4997585;28;92460;-82
2022/11/04 04:55:21;;;;;;;37.45;19.42;;;;;;;;;;4999286;28;93298;-82
2022/11/04 04:57:48;;;;;;;31.77;17.60;;;;;;;;;;4996068;28;94792;-81
2022/11/04 05:00:16;;;;;;;34.13;20.02;;;;;;;;;;4979388;28;96067;-81
2022/11/04 05:02:42;;;;;;;35.63;20.48;;;;;;;;;;4997307;28;94478;-82
2022/11/04 05:05:15;;;;;;;37.80;21.10;;;;;;;;;;4997163;28;92469;-81
2022/11/04 05:07:44;;;;;;;37.78;20.73;;;;;;;;;;4998691;28;94106;-81
2022/11/04 05:10:11;;;;;;;40.42;21.02;;;;;;;;;;4996710;28;94088;-82
2022/11/04 05:15:25;;;;;;;44.35;22.50;;;;;;;;;;4996868;28;93248;-81
2022/11/04 05:17:54;;;;;;;40.95;21.40;;;;;;;;;;4998353;28;95100;-81
2022/11/04 05:20:21;;;;;;;43.15;21.40;;;;;;;;;;4997928;28;94305;-81
2022/11/04 05:22:47;;;;;;;41.40;21.85;;;;;;;;;;4995315;28;95724;-81
2022/11/04 05:25:13;;;;;;;40.15;23.25;;;;;;;;;;4997242;28;92776;-81
2022/11/04 05:27:39;;;;;;;33.30;21.05;;;;;;;;;;4997114;28;94174;-81
2022/11/04 05:30:06;;;;;;;38.72;22.98;;;;;;;;;;4995853;28;93962;-81
2022/11/04 05:32:32;;;;;;;45.05;23.63;;;;;;;;;;4996642;28;92445;-82
2022/11/04 05:34:59;;;;;;;34.17;22.25;;;;;;;;;;4995143;28;93084;-81
2022/11/04 05:37:25;;;;;;;36.80;21.75;;;;;;;;;;4996069;28;93061;-81
2022/11/04 05:39:52;;;;;;;36.25;22.15;;;;;;;;;;5000374;28;91755;-81
2022/11/04 05:42:21;;;;;;;40.83;22.65;;;;;;;;;;4979050;28;94565;-81
2022/11/04 05:44:47;;;;;;;41.85;22.85;;;;;;;;;;4995693;28;92441;-82
2022/11/04 05:47:14;;;;;;;45.17;24.10;;;;;;;;;;4995236;28;94819;-81
2022/11/04 05:49:40;;;;;;;43.63;23.23;;;;;;;;;;4995934;28;94174;-81
2022/11/04 05:52:06;;;;;;;46.25;24.05;;;;;;;;;;4994491;28;92478;-81
2022/11/04 05:54:32;;;;;;;45.00;23.08;;;;;;;;;;4995346;28;92958;-81
2022/11/04 05:57:00;;;;;;;45.25;23.83;;;;;;;;;;4995497;28;93365;-81
2022/11/04 05:59:27;;;;;;;37.53;22.02;;;;;;;;;;4995976;28;92446;-81
2022/11/04 06:01:53;;;;;;;45.33;23.25;;;;;;;;;;4999112;28;93901;-81
2022/11/04 06:04:19;;;;;;;49.95;25.75;;;;;;;;;;4995366;28;92299;-81
2022/11/04 06:06:46;;;;;;;46.67;24.83;;;;;;;;;;4995858;28;92440;-81
2022/11/04 06:09:13;;;;;;;44.67;24.73;;;;;;;;;;4995835;28;95039;-81
2022/11/04 06:11:40;;;;;;;49.92;24.80;;;;;;;;;;4992736;28;94875;-80
2022/11/04 06:14:06;;;;;;;44.65;25.35;;;;;;;;;;4977547;28;96395;-81
2022/11/04 06:16:33;;;;;;;43.28;24.70;;;;;;;;;;4994843;28;92958;-81
2022/11/04 06:19:00;;;;;;;41.90;25.80;;;;;;;;;;4993461;28;92414;-81
2022/11/04 06:21:34;;;;;;;44.80;26.63;;;;;;;;;;4998019;28;93142;-80
2022/11/04 06:24:01;;;;;;;44.33;27.02;;;;;;;;;;4994194;28;92447;-81
2022/11/04 06:26:30;;;;;;;47.80;26.30;;;;;;;;;;4994801;28;93983;-80
2022/11/04 06:28:56;;;;;;;46.83;25.92;;;;;;;;;;4995205;28;93039;-80
2022/11/04 06:31:26;;;;;;;48.53;24.50;;;;;;;;;;4978150;28;92512;-80
2022/11/04 06:33:52;;;;;;;38.28;23.35;;;;;;;;;;4994426;28;92307;-80
2022/11/04 06:36:20;;;;;;;38.35;23.95;;;;;;;;;;4992972;28;95785;-81
2022/11/04 06:38:46;;;;;;;41.20;22.83;;;;;;;;;;4994808;28;92929;-81
2022/11/04 06:41:15;;;;;;;45.95;25.30;;;;;;;;;;4994477;28;94016;-81
2022/11/04 06:43:41;;;;;;;45.08;24.00;;;;;;;;;;4998392;28;94032;-81
2022/11/04 06:46:22;;;;;;;37.72;23.23;;;;;;;;;;4995569;28;94149;-81
2022/11/04 06:48:49;;;;;;;43.35;23.83;;;;;;;;;;4995571;28;94191;-81
2022/11/04 06:51:16;;;;;;;37.97;22.88;;;;;;;;;;4996434;28;92319;-80
2022/11/04 06:53:43;;;;;;;34.42;21.35;;;;;;;;;;4996497;28;94047;-79
2022/11/04 06:56:09;;;;;;;49.08;23.23;;;;;;;;;;4995848;28;94501;-79
2022/11/04 06:58:35;;;;;;;35.22;21.58;;;;;;;;;;4996167;28;92399;-81
2022/11/04 07:01:02;;;;;;;36.15;21.17;;;;;;;;;;4993401;28;95149;-81
2022/11/04 07:03:36;;;;;;;37.08;22.17;;;;;;;;;;4994071;28;94128;-80
2022/11/04 07:06:09;;;;;;;34.03;20.40;;;;;;;;;;4998835;28;92327;-80
2022/11/04 07:08:35;;;;;;;41.65;20.95;;;;;;;;;;4995417;28;93105;-81
2022/11/04 07:11:02;;;;;;;39.47;20.85;;;;;;;;;;4996191;28;92505;-86
2022/11/04 07:13:28;;;;;;;44.40;21.73;;;;;;;;;;4997078;28;93755;-81
2022/11/04 07:15:55;;;;;;;41.03;20.35;;;;;;;;;;4994956;28;94261;-81
2022/11/04 07:18:21;;;;;;;32.45;19.48;;;;;;;;;;4996875;28;91702;-81
2022/11/04 07:20:47;;;;;;;34.25;19.58;;;;;;;;;;4993550;28;93193;-79
2022/11/04 07:23:14;;;;;;;33.42;19.08;;;;;;;;;;4993041;28;94027;-81
2022/11/04 07:25:40;;;;;;;30.63;17.88;;;;;;;;;;4984850;28;94866;-81
2022/11/04 07:28:07;;;;;;;28.48;18.45;;;;;;;;;;4976880;28;95682;-80
2022/11/04 07:30:34;;;;;;;33.95;17.60;;;;;;;;;;4980884;28;92719;-81
2022/11/04 07:33:00;;;;;;;33.50;17.42;;;;;;;;;;4994191;28;93292;-80
2022/11/04 07:35:27;;;;;;;26.92;16.58;;;;;;;;;;4994472;28;94696;-80
2022/11/04 07:37:54;;;;;;;33.10;16.88;;;;;;;;;;4994144;28;92462;-80
2022/11/04 07:40:20;;;;;;;29.27;17.08;;;;;;;;;;4995756;28;93799;-80
2022/11/04 07:42:46;;;;;;;29.70;16.55;;;;;;;;;;4996917;28;93346;-80
2022/11/04 07:45:17;;;;;;;31.13;16.60;;;;;;;;;;4961114;28;92665;-80
2022/11/04 07:47:43;;;;;;;27.50;16.33;;;;;;;;;;4977608;28;93095;-81
2022/11/04 07:50:10;;;;;;;24.17;15.43;;;;;;;;;;4979086;28;96425;-81
2022/11/04 07:52:37;;;;;;;30.55;14.88;;;;;;;;;;4978974;28;95300;-82
2022/11/04 07:55:04;;;;;;;27.98;14.90;;;;;;;;;;4977593;28;93477;-80
2022/11/04 07:57:30;;;;;;;23.27;14.73;;;;;;;;;;4977258;28;92470;-81
2022/11/04 07:59:56;;;;;;;30.65;15.73;;;;;;;;;;4977336;28;92381;-81
2022/11/04 08:02:22;;;;;;;22.60;13.80;;;;;;;;;;4979529;28;93690;-81
2022/11/04 08:04:56;;;;;;;25.27;14.73;;;;;;;;;;4996324;28;92943;-81
2022/11/04 08:07:22;;;;;;;34.05;15.05;;;;;;;;;;4998667;28;94272;-80
2022/11/04 08:09:48;;;;;;;27.60;13.85;;;;;;;;;;4997940;28;94213;-81
2022/11/04 08:12:15;;;;;;;23.55;13.75;;;;;;;;;;5000920;28;92399;-84
2022/11/04 08:14:43;;;;;;;23.15;14.73;;;;;;;;;;4996484;28;95579;-83
2022/11/04 08:17:09;;;;;;;21.40;14.38;;;;;;;;;;4997331;28;92488;-83
2022/11/04 08:19:36;;;;;;;27.13;14.05;;;;;;;;;;4997823;28;94020;-83
2022/11/04 08:22:02;;;;;;;30.88;14.75;;;;;;;;;;4996365;28;93282;-82
2022/11/04 08:24:28;;;;;;;29.42;14.90;;;;;;;;;;4998392;28;92417;-83
2022/11/04 08:26:55;;;;;;;26.15;13.93;;;;;;;;;;4997706;28;93978;-83
2022/11/04 08:29:22;;;;;;;27.98;14.98;;;;;;;;;;4997706;28;93377;-82
2022/11/04 08:31:48;;;;;;;22.75;13.80;;;;;;;;;;5000895;28;91661;-82
2022/11/04 08:34:17;;;;;;;22.73;13.00;;;;;;;;;;4997515;28;94092;-81
2022/11/04 08:36:44;;;;;;;26.98;14.20;;;;;;;;;;4997643;28;92226;-82
2022/11/04 08:39:10;;;;;;;26.33;12.35;;;;;;;;;;4995071;28;94990;-80
2022/11/04 08:41:39;;;;;;;18.40;13.13;;;;;;;;;;4996376;28;93132;-79
2022/11/04 08:44:06;;;;;;;27.83;13.00;;;;;;;;;;4998210;28;92520;-78
2022/11/04 08:46:37;;;;;;;19.83;11.68;;;;;;;;;;4998340;28;93846;-79
2022/11/04 08:49:09;;;;;;;20.23;11.15;;;;;;;;;;4996320;28;93343;-79
2022/11/04 08:51:58;;;;;;;19.08;11.35;;;;;;;;;;4999706;28;92148;-77
2022/11/04 08:54:30;;;;;;;26.45;11.20;;;;;;;;;;4981667;28;92399;-79
2022/11/04 08:56:57;;;;;;;21.00;10.95;;;;;;;;;;4980613;28;91804;-79
2022/11/04 08:59:24;;;;;;;17.02;10.00;;;;;;;;;;4963046;28;92995;-79
2022/11/04 09:01:57;;;;;;;16.33;10.35;;;;;;;;;;4976102;28;94284;-78
2022/11/04 09:04:24;;;;;;;15.13;10.20;;;;;;;;;;4994660;28;94947;-79
2022/11/04 09:06:51;;;;;;;16.00;9.35;;;;;;;;;;4998807;28;96369;-80
2022/11/04 09:09:21;;;;;;;23.02;9.35;;;;;;;;;;4999287;28;93358;-82
2022/11/04 09:11:49;;;;;;;20.98;9.82;;;;;;;;;;5001524;28;92451;-79
2022/11/04 09:14:25;;;;;;;11.82;9.30;;;;;;;;;;4998680;28;94305;-79
2022/11/04 09:16:54;;;;;;;18.23;9.93;;;;;;;;;;5000881;28;93229;-79
2022/11/04 09:19:27;;;;;;;15.32;9.10;;;;;;;;;;4998760;28;93800;-78
2022/11/04 09:21:58;;;;;;;16.90;9.95;;;;;;;;;;4979243;28;91786;-79
2022/11/04 09:24:24;;;;;;;16.23;8.93;;;;;;;;;;4998538;28;92545;-79
2022/11/04 09:26:51;;;;;;;17.73;10.15;;;;;;;;;;4981580;28;93195;-79
2022/11/04 09:29:17;;;;;;;18.95;11.35;;;;;;;;;;4998242;28;95844;-79
2022/11/04 09:31:44;;;;;;;23.05;9.85;;;;;;;;;;4999647;28;92482;-77
2022/11/04 09:34:10;;;;;;;17.13;9.75;;;;;;;;;;4999769;28;93934;-78
2022/11/04 09:36:36;;;;;;;13.82;9.10;;;;;;;;;;4997096;28;93225;-79
2022/11/04 09:39:05;;;;;;;15.82;9.10;;;;;;;;;;4999749;28;92425;-78
2022/11/04 09:41:55;;;;;;;19.95;10.25;;;;;;;;;;4996962;28;94240;-78
2022/11/04 09:44:35;;;;;;;15.70;10.65;;;;;;;;;;4996401;28;92454;-79
2022/11/04 09:47:22;;;;;;;20.38;12.25;;;;;;;;;;4997107;28;94123;-79
2022/11/04 09:49:51;;;;;;;20.42;11.05;;;;;;;;;;4994976;28;93392;-80
2022/11/04 09:52:24;;;;;;;20.83;12.32;;;;;;;;;;4996495;28;92492;-79
2022/11/04 09:54:59;;;;;;;14.52;12.13;;;;;;;;;;4993880;28;94911;-80
2022/11/04 09:57:25;;;;;;;16.75;12.48;;;;;;;;;;4995896;28;94211;-79
2022/11/04 09:59:53;;;;;;;19.48;13.32;;;;;;;;;;4995778;28;92587;-79
2022/11/04 10:02:42;;;;;;;21.38;13.02;;;;;;;;;;4999421;28;94153;-79
2022/11/04 10:05:14;;;;;;;16.83;13.02;;;;;;;;;;4995050;28;92423;-80
2022/11/04 10:07:51;;;;;;;26.60;13.47;;;;;;;;;;4995516;28;92407;-79
2022/11/04 10:10:37;;;;;;;21.00;12.95;;;;;;;;;;4994946;28;93937;-79
2022/11/04 10:13:13;;;;;;;20.20;12.50;;;;;;;;;;4979618;28;92957;-79
2022/11/04 10:15:39;;;;;;;14.18;12.57;;;;;;;;;;4995053;28;92692;-79
2022/11/04 10:18:25;;;;;;;17.83;13.77;;;;;;;;;;4994015;28;93295;-80
2022/11/04 10:20:54;;;;;;;17.63;13.32;;;;;;;;;;4991706;28;94913;-80
2022/11/04 10:23:32;;;;;;;16.73;13.02;;;;;;;;;;4997656;28;94498;-80
2022/11/04 10:26:11;;;;;;;16.77;13.85;;;;;;;;;;4993807;28;92497;-79
2022/11/04 10:28:40;;;;;;;20.00;14.38;;;;;;;;;;4995003;28;92421;-80
2022/11/04 10:31:09;;;;;;;23.00;15.18;;;;;;;;;;4995357;28;94320;-79
2022/11/04 10:33:54;;;;;;;21.70;15.07;;;;;;;;;;4977357;28;93034;-80
2022/11/04 10:36:21;;;;;;;18.20;14.10;;;;;;;;;;4995807;28;92766;-80
2022/11/04 10:38:48;;;;;;;21.33;14.48;;;;;;;;;;4995563;28;93409;-80
2022/11/04 10:41:23;;;;;;;21.35;13.98;;;;;;;;;;4995720;28;92445;-79
2022/11/04 10:43:51;;;;;;;17.83;14.25;;;;;;;;;;4995198;28;93930;-80
2022/11/04 10:46:36;;;;;;;19.58;13.70;;;;;;;;;;4996166;28;96618;-80
2022/11/04 10:49:14;;;;;;;21.08;14.50;;;;;;;;;;4994924;28;95439;-80
2022/11/04 10:51:41;;;;;;;18.20;11.95;;;;;;;;;;4977014;28;93459;-80
2022/11/04 10:54:08;;;;;;;19.40;12.65;;;;;;;;;;4992409;28;92670;-80
2022/11/04 10:56:42;;;;;;;22.42;13.18;;;;;;;;;;4994762;28;94062;-80
2022/11/04 10:59:23;;;;;;;24.27;13.50;;;;;;;;;;4995227;28;93008;-80
2022/11/04 11:01:57;;;;;;;20.75;13.18;;;;;;;;;;4979824;28;92423;-79
2022/11/04 11:04:34;;;;;;;17.85;11.35;;;;;;;;;;4997801;28;93025;-79
2022/11/04 11:07:04;;;;;;;12.05;10.80;;;;;;;;;;4972776;28;93250;-78
2022/11/04 11:09:35;;;;;;;24.75;11.40;;;;;;;;;;5002483;28;92466;-78
2022/11/04 11:12:06;;;;;;;19.45;11.30;;;;;;;;;;4997166;28;96305;-79
2022/11/04 11:14:56;;;;;;;19.98;12.77;;;;;;;;;;4998045;28;92470;-79
2022/11/04 11:17:35;;;;;;;22.00;12.73;;;;;;;;;;5001156;28;94037;-79
2022/11/04 11:20:17;;;;;;;15.93;10.02;;;;;;;;;;5000847;28;94202;-80
2022/11/04 11:22:50;;;;;;;16.73;11.65;;;;;;;;;;5000477;28;92495;-79
2022/11/04 11:25:23;;;;;;;19.10;10.77;;;;;;;;;;5000691;28;93474;-80
2022/11/04 11:28:00;;;;;;;16.75;10.82;;;;;;;;;;4983462;28;93831;-79
2022/11/04 11:30:33;;;;;;;18.15;10.52;;;;;;;;;;5002227;28;91713;-79
2022/11/04 11:33:07;;;;;;;16.77;10.45;;;;;;;;;;5002333;28;92508;-80
2022/11/04 11:35:41;;;;;;;14.32;10.30;;;;;;;;;;5001514;28;92927;-80
2022/11/04 11:38:37;;;;;;;17.65;9.98;;;;;;;;;;5000814;28;94763;-80
2022/11/04 11:41:17;;;;;;;18.13;9.57;;;;;;;;;;4987708;28;94078;-79
2022/11/04 11:44:14;;;;;;;11.80;9.27;;;;;;;;;;5001803;28;92626;-78
2022/11/04 11:46:53;;;;;;;18.58;8.95;;;;;;;;;;4984331;28;93434;-79
2022/11/04 11:49:20;;;;;;;;;;;;;;;;;;4998774;28;93880;-79
2022/11/04 11:51:49;;;;;;;16.65;9.07;;;;;;;;;;5003076;28;118227;-78
2022/11/04 11:54:32;;;;;;;16.48;10.45;;;;;;;;;;5001135;28;92975;-80
2022/11/04 11:57:11;;;;;;;13.02;8.23;;;;;;;;;;5002787;28;92743;-79
2022/11/04 11:59:48;;;;;;;17.00;9.18;;;;;;;;;;5002023;28;92492;-80
2022/11/04 12:02:44;;;;;;;14.10;9.38;;;;;;;;;;5000880;28;93220;-79
2022/11/04 12:05:15;;;;;;;17.02;9.40;;;;;;;;;;4995217;28;94932;-79
2022/11/04 12:08:13;;;;;;;;;;;;;;;;;;4979404;28;94102;-79
2022/11/04 12:11:05;;;;;;;17.27;7.33;;;;;;;;;;5000915;28;93735;-80
2022/11/04 12:13:52;;;;;;;11.23;7.32;;;;;;;;;;5002794;28;92376;-79
2022/11/04 12:16:35;;;;;;;7.45;6.75;;;;;;;;;;5002563;28;92418;-79
2022/11/04 12:19:03;;;;;;;13.77;7.05;;;;;;;;;;5002452;28;94288;-79
2022/11/04 12:22:08;;;;;;;11.55;6.57;;;;;;;;;;5006604;28;92419;-79
2022/11/04 12:25:04;;;;;;;10.57;5.15;;;;;;;;;;4921925;28;93447;-77
2022/11/04 12:27:32;;;;;;;8.63;5.93;;;;;;;;;;4910634;28;92670;-82
2022/11/04 12:30:16;;;;;;;8.25;5.15;;;;;;;;;;4983986;28;92466;-83
2022/11/04 12:33:04;;;;;;;11.43;5.35;;;;;;;;;;5004493;28;96455;-83
2022/11/04 12:35:52;;;;;;;6.05;4.88;;;;;;;;;;5005935;28;92385;-82
2022/11/04 12:38:23;;;;;;;7.88;4.70;;;;;;;;;;5001757;28;92839;-84
2022/11/04 12:40:59;;;;;;;12.57;4.90;;;;;;;;;;4998215;28;93478;-82
2022/11/04 12:43:45;;;;;;;11.40;5.35;;;;;;;;;;5001588;28;92254;-83
2022/11/04 12:46:32;;;;;;;6.00;4.90;;;;;;;;;;4997187;28;93582;-84
2022/11/04 12:49:01;;;;;;;5.22;4.30;;;;;;;;;;4948422;28;92554;-84
2022/11/04 12:51:41;;;;;;;6.75;4.93;;;;;;;;;;4999162;28;94044;-84
2022/11/04 12:54:20;;;;;;;9.32;5.07;;;;;;;;;;4991995;28;93284;-83
2022/11/04 12:56:50;;;;;;;15.02;5.30;;;;;;;;;;4978634;28;92341;-84
2022/11/04 12:59:55;;;;;;;10.00;4.63;;;;;;;;;;4976285;28;94781;-86
2022/11/04 13:02:24;;;;;;;7.40;4.28;;;;;;;;;;4917801;28;93354;-84
2022/11/04 13:05:06;;;;;;;11.38;4.40;;;;;;;;;;4918425;28;92561;-83
2022/11/04 13:07:37;;;;;;;11.90;4.47;;;;;;;;;;4956875;28;94271;-83
2022/11/04 13:10:13;;;;;;;9.18;4.03;;;;;;;;;;4978245;28;92313;-84
2022/11/04 13:12:42;;;;;;;10.27;4.60;;;;;;;;;;4979095;28;93652;-82
2022/11/04 13:15:19;;;;;;;9.40;4.47;;;;;;;;;;4977157;28;93137;-84
2022/11/04 13:17:48;;;;;;;4.55;3.63;;;;;;;;;;4978600;28;91774;-84
2022/11/04 13:20:26;;;;;;;10.25;4.40;;;;;;;;;;4979766;28;92432;-84
2022/11/04 13:22:56;;;;;;;5.50;4.20;;;;;;;;;;4986414;28;94244;-83
2022/11/04 13:25:43;;;;;;;5.55;3.85;;;;;;;;;;4999471;28;94804;-87
2022/11/04 13:28:15;;;;;;;10.50;4.57;;;;;;;;;;4999843;28;94553;-82
2022/11/04 13:30:54;;;;;;;7.43;3.75;;;;;;;;;;5002015;28;93961;-80
2022/11/04 13:33:39;;;;;;;5.40;1.40;;;;;;;;;;4991386;28;93904;-80
2022/11/04 13:36:21;;;;;;;1.67;0.80;;;;;;;;;;4997792;28;93940;-80
2022/11/04 13:38:51;;;;;;;1.55;1.08;;;;;;;;;;4989652;28;95426;-80
2022/11/04 13:41:17;;;;;;;2.45;1.08;;;;;;;;;;4978060;28;92871;-81
2022/11/04 13:43:54;;;;;;;0.90;0.90;;;;;;;;;;4996695;28;93401;-78
2022/11/04 13:46:23;;;;;;;4.38;0.80;;;;;;;;;;4998048;28;92379;-81
2022/11/04 13:48:57;;;;;;;3.90;0.90;;;;;;;;;;4996893;28;92970;-82
2022/11/04 13:51:43;;;;;;;6.68;0.60;;;;;;;;;;4997246;28;96536;-79
2022/11/04 13:54:21;;;;;;;0.68;0.68;;;;;;;;;;5001589;28;92582;-81
2022/11/04 13:56:48;;;;;;;1.38;0.77;;;;;;;;;;4996610;28;93737;-80
2022/11/04 13:59:21;;;;;;;0.63;0.60;;;;;;;;;;4998502;28;92540;-80
2022/11/04 14:02:10;;;;;;;0.75;0.63;;;;;;;;;;4995389;28;93091;-80
2022/11/04 14:04:37;;;;;;;1.38;0.82;;;;;;;;;;4997250;28;93038;-80
2022/11/04 14:07:07;;;;;;;3.22;0.73;;;;;;;;;;4996298;28;92961;-81
2022/11/04 14:09:39;;;;;;;;;;;;;;;;;;4997817;28;93780;-78
2022/11/04 14:12:10;;;;;;;0.52;0.52;;;;;;;;;;4997554;28;123526;-79
2022/11/04 14:14:37;;;;;;;1.52;0.73;;;;;;;;;;4996757;28;92415;-80
2022/11/04 14:17:24;;;;;;;1.00;0.85;;;;;;;;;;4995350;28;94830;-80
2022/11/04 14:19:54;;;;;;;1.15;0.88;;;;;;;;;;4995772;28;92405;-79
2022/11/04 14:22:21;;;;;;;2.55;0.77;;;;;;;;;;4995712;28;93053;-81
2022/11/04 14:24:55;;;;;;;1.70;0.82;;;;;;;;;;4995749;28;94394;-80
2022/11/04 14:27:23;;;;;;;1.52;0.80;;;;;;;;;;4995980;28;92653;-80
2022/11/04 14:29:51;;;;;;;1.95;1.10;;;;;;;;;;4996400;28;94064;-79
2022/11/04 14:32:24;;;;;;;1.25;0.88;;;;;;;;;;4995795;28;94129;-79
2022/11/04 14:34:58;;;;;;;6.17;1.20;;;;;;;;;;4996932;28;91712;-80
2022/11/04 14:37:27;;;;;;;1.95;0.85;;;;;;;;;;4995866;28;92393;-80
2022/11/04 14:39:59;;;;;;;8.77;1.42;;;;;;;;;;4999453;28;95079;-79
2022/11/04 14:42:44;;;;;;;4.50;1.48;;;;;;;;;;4995241;28;94845;-80
2022/11/04 14:45:15;;;;;;;4.22;1.38;;;;;;;;;;4994940;28;93284;-82
2022/11/04 14:47:44;;;;;;;2.10;1.00;;;;;;;;;;4996505;28;92393;-80
2022/11/04 14:50:19;;;;;;;2.45;1.10;;;;;;;;;;4999244;28;93862;-81
2022/11/04 14:52:56;;;;;;;2.83;1.48;;;;;;;;;;4999257;28;94486;-80
2022/11/04 14:55:25;;;;;;;5.60;1.30;;;;;;;;;;5000522;28;92394;-80
2022/11/04 14:57:56;;;;;;;4.38;1.23;;;;;;;;;;5000048;28;93887;-82
2022/11/04 15:00:30;;;;;;;4.63;1.10;;;;;;;;;;5002762;28;93493;-81
2022/11/04 15:03:26;;;;;;;1.40;1.20;;;;;;;;;;5000019;28;93483;-80
2022/11/04 15:06:21;;;;;;;3.95;1.20;;;;;;;;;;4994079;28;93080;-81
2022/11/04 15:09:17;;;;;;;3.08;0.93;;;;;;;;;;4997288;28;94924;-81
2022/11/04 15:14:28;;;;;;;1.67;1.10;;;;;;;;;;4998475;28;92477;-81
2022/11/04 15:16:56;;;;;;;5.25;1.60;;;;;;;;;;4998921;28;92442;-80
2022/11/04 15:19:29;;;;;;;2.72;1.38;;;;;;;;;;4998759;28;93541;-81
2022/11/04 15:21:57;;;;;;;6.80;1.58;;;;;;;;;;4998676;28;94539;-81
2022/11/04 15:24:24;;;;;;;2.17;1.30;;;;;;;;;;5002652;28;92467;-79
2022/11/04 15:26:51;;;;;;;2.28;1.58;;;;;;;;;;4998983;28;93755;-80
2022/11/04 15:29:19;;;;;;;4.93;1.50;;;;;;;;;;4999757;28;92594;-81
2022/11/04 15:31:56;;;;;;;6.05;1.52;;;;;;;;;;4999718;28;94209;-79
2022/11/04 15:34:23;;;;;;;3.30;1.52;;;;;;;;;;4997189;28;96733;-80